sensor_id;sensor_type;location;lat;lon;timestamp;pressure;altitude;pressure_sealevel;temperature;humidity
71964;BME280;59834;52.124;5.422;2023-03-26T00:01:00;100756.81;;;6.68;100.00
71964;BME280;59834;52.124;5.422;2023-03-26T00:03:27;100751.63;;;6.68;100.00
71964;BME280;59834;52.124;5.422;2023-03-26T00:06:04;100748.94;;;6.69;100.00
71964;BME280;59834;52.124;5.422;2023-03-26T00:08:33;100753.28;;;6.69;100.00
71964;BME280;59834;52.124;5.422;2023-03-26T00:11:02;100756.81;;;6.68;100.00
71964;BME280;59834;52.124;5.422;2023-03-26T00:13:30;100749.06;;;6.66;100.00
71964;BME280;59834;52.124;5.422;2023-03-26T00:15:58;100750.00;;;6.65;100.00
71964;BME280;59834;52.124;5.422;2023-03-26T00:18:25;100748.31;;;6.64;100.00
71964;BME280;59834;52.124;5.422;2023-03-26T00:21:02;100754.44;;;6.63;100.00
71964;BME280;59834;52.124;5.422;2023-03-26T00:23:29;100743.19;;;6.63;100.00
71964;BME280;59834;52.124;5.422;2023-03-26T00:25:56;100749.22;;;6.63;100.00
71964;BME280;59834;52.124;5.422;2023-03-26T00:28:24;100736.16;;;6.65;100.00
71964;BME280;59834;52.124;5.422;2023-03-26T00:31:03;100736.16;;;6.65;100.00
71964;BME280;59834;52.124;5.422;2023-03-26T00:33:30;100744.09;;;6.61;100.00
71964;BME280;59834;52.124;5.422;2023-03-26T00:35:59;100738.13;;;6.59;100.00
71964;BME280;59834;52.124;5.422;2023-03-26T00:38:29;100729.56;;;6.57;100.00
71964;BME280;59834;52.124;5.422;2023-03-26T00:40:59;100725.28;;;6.56;100.00
71964;BME280;59834;52.124;5.422;2023-03-26T00:43:33;100721.97;;;6.53;100.00
71964;BME280;59834;52.124;5.422;2023-03-26T00:46:00;100724.72;;;6.50;100.00
71964;BME280;59834;52.124;5.422;2023-03-26T00:48:31;100709.34;;;6.45;100.00
71964;BME280;59834;52.124;5.422;2023-03-26T00:51:11;100722.41;;;6.44;100.00
71964;BME280;59834;52.124;5.422;2023-03-26T00:53:42;100715.47;;;6.44;100.00
71964;BME280;59834;52.124;5.422;2023-03-26T00:56:10;100709.41;;;6.44;100.00
71964;BME280;59834;52.124;5.422;2023-03-26T00:58:37;100702.47;;;6.44;100.00
71964;BME280;59834;52.124;5.422;2023-03-26T01:01:07;100703.38;;;6.43;100.00
71964;BME280;59834;52.124;5.422;2023-03-26T01:03:36;100706.75;;;6.45;100.00
71964;BME280;59834;52.124;5.422;2023-03-26T01:08:35;100706.66;;;6.47;100.00
71964;BME280;59834;52.124;5.422;2023-03-26T01:11:07;100698.97;;;6.45;100.00
71964;BME280;59834;52.124;5.422;2023-03-26T01:13:48;100695.53;;;6.45;100.00
71964;BME280;59834;52.124;5.422;2023-03-26T01:16:21;100697.28;;;6.44;100.00
71964;BME280;59834;52.124;5.422;2023-03-26T01:18:49;100698.19;;;6.43;100.00
71964;BME280;59834;52.124;5.422;2023-03-26T01:21:21;100689.53;;;6.43;100.00
71964;BME280;59834;52.124;5.422;2023-03-26T01:24:15;100671.44;;;6.41;100.00
71964;BME280;59834;52.124;5.422;2023-03-26T01:29:41;100661.19;;;6.38;100.00
71964;BME280;59834;52.124;5.422;2023-03-26T01:32:33;100650.00;;;6.36;100.00
71964;BME280;59834;52.124;5.422;2023-03-26T01:40:27;100652.47;;;6.39;100.00
71964;BME280;59834;52.124;5.422;2023-03-26T01:43:12;100648.94;;;6.40;100.00
71964;BME280;59834;52.124;5.422;2023-03-26T01:45:45;100642.00;;;6.41;100.00
71964;BME280;59834;52.124;5.422;2023-03-26T01:48:13;100639.41;;;6.41;100.00
71964;BME280;59834;52.124;5.422;2023-03-26T01:50:39;100647.25;;;6.39;100.00
71964;BME280;59834;52.124;5.422;2023-03-26T01:53:07;100640.38;;;6.38;100.00
71964;BME280;59834;52.124;5.422;2023-03-26T01:56:02;100635.34;;;6.35;100.00
71964;BME280;59834;52.124;5.422;2023-03-26T02:01:26;100619.75;;;6.35;100.00
71964;BME280;59834;52.124;5.422;2023-03-26T02:07:10;100624.09;;;6.34;100.00
71964;BME280;59834;52.124;5.422;2023-03-26T02:09:44;100612.09;;;6.32;100.00
71964;BME280;59834;52.124;5.422;2023-03-26T02:12:13;100603.44;;;6.31;100.00
71964;BME280;59834;52.124;5.422;2023-03-26T02:14:40;100605.22;;;6.31;100.00
71964;BME280;59834;52.124;5.422;2023-03-26T02:17:09;100598.31;;;6.30;100.00
71964;BME280;59834;52.124;5.422;2023-03-26T02:19:37;100601.84;;;6.29;100.00
71964;BME280;59834;52.124;5.422;2023-03-26T02:22:08;100599.47;;;6.24;100.00
71964;BME280;59834;52.124;5.422;2023-03-26T02:24:40;100599.47;;;6.24;100.00
71964;BME280;59834;52.124;5.422;2023-03-26T02:27:07;100591.75;;;6.23;100.00
71964;BME280;59834;52.124;5.422;2023-03-26T02:29:37;100582.97;;;6.25;100.00
71964;BME280;59834;52.124;5.422;2023-03-26T02:32:10;100586.47;;;6.24;100.00
71964;BME280;59834;52.124;5.422;2023-03-26T02:34:41;100586.38;;;6.26;100.00
71964;BME280;59834;52.124;5.422;2023-03-26T02:37:08;100583.63;;;6.29;100.00
71964;BME280;59834;52.124;5.422;2023-03-26T02:39:35;100579.97;;;6.33;100.00
71964;BME280;59834;52.124;5.422;2023-03-26T02:42:02;100580.91;;;6.32;100.00
71964;BME280;59834;52.124;5.422;2023-03-26T02:44:28;100568.66;;;6.34;100.00
71964;BME280;59834;52.124;5.422;2023-03-26T02:46:55;100569.66;;;6.31;100.00
71964;BME280;59834;52.124;5.422;2023-03-26T02:49:21;100579.06;;;6.34;100.00
71964;BME280;59834;52.124;5.422;2023-03-26T02:51:48;100565.97;;;6.35;100.00
71964;BME280;59834;52.124;5.422;2023-03-26T02:54:15;100569.34;;;6.37;100.00
71964;BME280;59834;52.124;5.422;2023-03-26T02:56:42;100567.44;;;6.41;100.00
71964;BME280;59834;52.124;5.422;2023-03-26T02:59:08;100571.56;;;6.45;100.00
71964;BME280;59834;52.124;5.422;2023-03-26T03:01:36;100567.97;;;6.48;100.00
71964;BME280;59834;52.124;5.422;2023-03-26T03:04:09;100562.69;;;6.49;100.00
71964;BME280;59834;52.124;5.422;2023-03-26T03:06:36;100562.53;;;6.52;100.00
71964;BME280;59834;52.124;5.422;2023-03-26T03:09:04;100560.03;;;6.51;100.00
71964;BME280;59834;52.124;5.422;2023-03-26T03:11:31;100559.94;;;6.52;100.00
71964;BME280;59834;52.124;5.422;2023-03-26T03:13:57;100548.53;;;6.55;100.00
71964;BME280;59834;52.124;5.422;2023-03-26T03:16:24;100559.63;;;6.58;100.00
71964;BME280;59834;52.124;5.422;2023-03-26T03:18:51;100551.66;;;6.61;100.00
71964;BME280;59834;52.124;5.422;2023-03-26T03:21:25;100547.03;;;6.67;100.00
71964;BME280;59834;52.124;5.422;2023-03-26T03:23:56;100542.16;;;6.78;100.00
71964;BME280;59834;52.124;5.422;2023-03-26T03:26:26;100539.28;;;6.82;100.00
71964;BME280;59834;52.124;5.422;2023-03-26T03:28:54;100539.97;;;6.86;100.00
71964;BME280;59834;52.124;5.422;2023-03-26T03:31:24;100537.13;;;6.91;100.00
71964;BME280;59834;52.124;5.422;2023-03-26T03:33:52;100527.56;;;6.91;100.00
71964;BME280;59834;52.124;5.422;2023-03-26T03:36:19;100528.25;;;6.95;100.00
71964;BME280;59834;52.124;5.422;2023-03-26T03:38:49;100520.44;;;6.95;100.00
71964;BME280;59834;52.124;5.422;2023-03-26T03:41:16;100526.47;;;6.95;100.00
71964;BME280;59834;52.124;5.422;2023-03-26T03:43:44;100529.91;;;6.96;100.00
71964;BME280;59834;52.124;5.422;2023-03-26T03:46:10;100534.19;;;6.97;100.00
71964;BME280;59834;52.124;5.422;2023-03-26T03:48:38;100529.81;;;6.97;100.00
71964;BME280;59834;52.124;5.422;2023-03-26T03:51:05;100529.81;;;6.97;100.00
71964;BME280;59834;52.124;5.422;2023-03-26T03:53:33;100529.81;;;6.97;100.00
71964;BME280;59834;52.124;5.422;2023-03-26T03:56:03;100534.19;;;6.97;100.00
71964;BME280;59834;52.124;5.422;2023-03-26T03:58:30;100532.34;;;6.99;100.00
71964;BME280;59834;52.124;5.422;2023-03-26T04:00:56;100524.63;;;6.97;100.00
71964;BME280;59834;52.124;5.422;2023-03-26T04:03:30;100518.50;;;6.98;100.00
71964;BME280;59834;52.124;5.422;2023-03-26T04:06:00;100519.34;;;6.99;100.00
71964;BME280;59834;52.124;5.422;2023-03-26T04:08:26;100514.97;;;6.99;100.00
71964;BME280;59834;52.124;5.422;2023-03-26T04:10:53;100515.91;;;6.98;100.00
71964;BME280;59834;52.124;5.422;2023-03-26T04:13:19;100509.00;;;6.97;100.00
71964;BME280;59834;52.124;5.422;2023-03-26T04:15:46;100505.50;;;6.98;100.00
71964;BME280;59834;52.124;5.422;2023-03-26T04:18:13;100501.13;;;6.99;100.00
71964;BME280;59834;52.124;5.422;2023-03-26T04:20:41;100493.22;;;7.00;100.00
71964;BME280;59834;52.124;5.422;2023-03-26T04:23:12;100491.56;;;6.99;100.00
71964;BME280;59834;52.124;5.422;2023-03-26T04:25:44;100494.25;;;6.98;100.00
71964;BME280;59834;52.124;5.422;2023-03-26T04:28:24;100489.91;;;6.98;100.00
71964;BME280;59834;52.124;5.422;2023-03-26T04:30:54;100485.53;;;6.99;100.00
71964;BME280;59834;52.124;5.422;2023-03-26T04:33:22;100484.69;;;6.98;100.00
71964;BME280;59834;52.124;5.422;2023-03-26T04:35:51;100476.88;;;6.98;100.00
71964;BME280;59834;52.124;5.422;2023-03-26T04:38:17;100470.84;;;6.98;100.00
71964;BME280;59834;52.124;5.422;2023-03-26T04:40:44;100475.94;;;6.99;100.00
71964;BME280;59834;52.124;5.422;2023-03-26T04:43:15;100465.53;;;6.99;100.00
71964;BME280;59834;52.124;5.422;2023-03-26T04:45:43;100465.53;;;6.99;100.00
71964;BME280;59834;52.124;5.422;2023-03-26T04:48:12;100458.56;;;7.00;100.00
71964;BME280;59834;52.124;5.422;2023-03-26T04:50:42;100455.13;;;6.99;100.00
71964;BME280;59834;52.124;5.422;2023-03-26T04:53:15;100449.00;;;7.00;100.00
71964;BME280;59834;52.124;5.422;2023-03-26T04:55:56;100450.75;;;7.00;100.00
71964;BME280;59834;52.124;5.422;2023-03-26T04:58:25;100445.66;;;6.98;100.00
71964;BME280;59834;52.124;5.422;2023-03-26T05:00:59;100441.34;;;6.97;100.00
71964;BME280;59834;52.124;5.422;2023-03-26T05:03:36;100439.63;;;6.98;100.00
71964;BME280;59834;52.124;5.422;2023-03-26T05:06:06;100425.84;;;6.96;100.00
71964;BME280;59834;52.124;5.422;2023-03-26T05:08:34;100428.44;;;6.96;100.00
71964;BME280;59834;52.124;5.422;2023-03-26T05:11:01;100418.13;;;6.94;100.00
71964;BME280;59834;52.124;5.422;2023-03-26T05:13:28;100421.56;;;6.95;100.00
71964;BME280;59834;52.124;5.422;2023-03-26T05:15:55;100425.06;;;6.94;100.00
71964;BME280;59834;52.124;5.422;2023-03-26T05:18:21;100413.84;;;6.93;100.00
71964;BME280;59834;52.124;5.422;2023-03-26T05:20:48;100419.88;;;6.94;100.00
71964;BME280;59834;52.124;5.422;2023-03-26T05:23:14;100416.38;;;6.95;100.00
71964;BME280;59834;52.124;5.422;2023-03-26T05:25:41;100414.59;;;6.95;100.00
71964;BME280;59834;52.124;5.422;2023-03-26T05:28:08;100406.78;;;6.95;100.00
71964;BME280;59834;52.124;5.422;2023-03-26T05:30:36;100405.03;;;6.96;100.00
71964;BME280;59834;52.124;5.422;2023-03-26T05:33:03;100404.94;;;6.97;100.00
71964;BME280;59834;52.124;5.422;2023-03-26T05:35:30;100400.59;;;6.98;100.00
71964;BME280;59834;52.124;5.422;2023-03-26T05:37:56;100398.72;;;7.00;100.00
71964;BME280;59834;52.124;5.422;2023-03-26T05:40:23;100397.06;;;6.99;100.00
71964;BME280;59834;52.124;5.422;2023-03-26T05:42:50;100396.97;;;7.00;100.00
71964;BME280;59834;52.124;5.422;2023-03-26T05:45:16;100394.44;;;6.99;100.00
71964;BME280;59834;52.124;5.422;2023-03-26T05:47:43;100390.09;;;6.99;100.00
71964;BME280;59834;52.124;5.422;2023-03-26T05:50:10;100390.91;;;7.00;100.00
71964;BME280;59834;52.124;5.422;2023-03-26T05:52:37;100393.53;;;7.00;100.00
71964;BME280;59834;52.124;5.422;2023-03-26T05:55:04;100383.94;;;7.00;100.00
71964;BME280;59834;52.124;5.422;2023-03-26T05:57:31;100379.59;;;7.01;100.00
71964;BME280;59834;52.124;5.422;2023-03-26T05:59:58;100374.41;;;7.01;100.00
71964;BME280;59834;52.124;5.422;2023-03-26T06:02:25;100376.06;;;7.02;100.00
71964;BME280;59834;52.124;5.422;2023-03-26T06:04:51;100379.50;;;7.02;100.00
71964;BME280;59834;52.124;5.422;2023-03-26T06:07:18;100369.88;;;7.04;100.00
71964;BME280;59834;52.124;5.422;2023-03-26T06:09:45;100365.50;;;7.05;100.00
71964;BME280;59834;52.124;5.422;2023-03-26T06:12:12;100360.19;;;7.06;100.00
71964;BME280;59834;52.124;5.422;2023-03-26T06:14:39;100354.81;;;7.09;100.00
71964;BME280;59834;52.124;5.422;2023-03-26T06:17:08;100355.56;;;7.12;100.00
71964;BME280;59834;52.124;5.422;2023-03-26T06:19:36;100353.72;;;7.14;100.00
71964;BME280;59834;52.124;5.422;2023-03-26T06:22:03;100353.63;;;7.15;100.00
71964;BME280;59834;52.124;5.422;2023-03-26T06:24:31;100348.31;;;7.17;100.00
71964;BME280;59834;52.124;5.422;2023-03-26T06:26:58;100347.31;;;7.19;100.00
71964;BME280;59834;52.124;5.422;2023-03-26T06:29:24;100340.34;;;7.20;100.00
71964;BME280;59834;52.124;5.422;2023-03-26T06:31:51;100347.22;;;7.21;100.00
71964;BME280;59834;52.124;5.422;2023-03-26T06:34:18;100339.16;;;7.25;100.00
71964;BME280;59834;52.124;5.422;2023-03-26T06:36:44;100339.72;;;7.30;100.00
71964;BME280;59834;52.124;5.422;2023-03-26T06:39:11;100345.78;;;7.31;100.00
71964;BME280;59834;52.124;5.422;2023-03-26T06:41:40;100333.50;;;7.33;100.00
71964;BME280;59834;52.124;5.422;2023-03-26T06:45:14;100336.22;;;7.31;100.00
71964;BME280;59834;52.124;5.422;2023-03-26T06:47:40;100339.53;;;7.33;100.00
71964;BME280;59834;52.124;5.422;2023-03-26T06:50:08;100333.44;;;7.35;100.00
71964;BME280;59834;52.124;5.422;2023-03-26T06:52:36;100331.75;;;7.33;100.00
71964;BME280;59834;52.124;5.422;2023-03-26T06:55:04;100335.84;;;7.38;100.00
71964;BME280;59834;52.124;5.422;2023-03-26T06:57:33;100329.72;;;7.39;100.00
71964;BME280;59834;52.124;5.422;2023-03-26T07:00:00;100327.94;;;7.39;100.00
71964;BME280;59834;52.124;5.422;2023-03-26T07:02:34;100337.44;;;7.40;100.00
71964;BME280;59834;52.124;5.422;2023-03-26T07:05:02;100335.75;;;7.39;100.00
71964;BME280;59834;52.124;5.422;2023-03-26T07:07:42;100335.00;;;7.37;100.00
71964;BME280;59834;52.124;5.422;2023-03-26T07:10:13;100340.13;;;7.39;100.00
71964;BME280;59834;52.124;5.422;2023-03-26T07:12:39;100332.31;;;7.39;100.00
71964;BME280;59834;52.124;5.422;2023-03-26T07:15:08;100332.97;;;7.42;100.00
71964;BME280;59834;52.124;5.422;2023-03-26T07:17:35;100331.97;;;7.45;100.00
71964;BME280;59834;52.124;5.422;2023-03-26T07:20:03;100325.91;;;7.44;100.00
71964;BME280;59834;52.124;5.422;2023-03-26T07:22:31;100334.66;;;7.43;100.00
71964;BME280;59834;52.124;5.422;2023-03-26T07:24:57;100329.25;;;7.46;100.00
71964;BME280;59834;52.124;5.422;2023-03-26T07:33:09;100329.47;;;7.57;100.00
71964;BME280;59834;52.124;5.422;2023-03-26T07:35:40;100318.13;;;7.59;100.00
71964;BME280;59834;52.124;5.422;2023-03-26T07:46:07;100318.59;;;7.65;100.00
71964;BME280;59834;52.124;5.422;2023-03-26T07:48:40;100315.72;;;7.70;100.00
71964;BME280;59834;52.124;5.422;2023-03-26T07:51:08;100317.38;;;7.71;100.00
71964;BME280;59834;52.124;5.422;2023-03-26T07:53:35;100314.72;;;7.72;100.00
71964;BME280;59834;52.124;5.422;2023-03-26T07:56:28;100312.19;;;7.71;100.00
71964;BME280;59834;52.124;5.422;2023-03-26T07:59:20;100319.09;;;7.72;100.00
71964;BME280;59834;52.124;5.422;2023-03-26T08:04:57;100309.97;;;7.79;100.00
71964;BME280;59834;52.124;5.422;2023-03-26T08:16:24;100306.06;;;7.86;100.00
71964;BME280;59834;52.124;5.422;2023-03-26T08:19:09;100316.28;;;7.89;100.00
71964;BME280;59834;52.124;5.422;2023-03-26T08:21:57;100304.38;;;7.85;100.00
71964;BME280;59834;52.124;5.422;2023-03-26T08:24:42;100305.47;;;7.81;100.00
71964;BME280;59834;52.124;5.422;2023-03-26T08:27:21;100305.59;;;7.79;100.00
71964;BME280;59834;52.124;5.422;2023-03-26T08:32:33;100308.94;;;7.82;100.00
71964;BME280;59834;52.124;5.422;2023-03-26T08:35:00;100315.00;;;7.82;100.00
71964;BME280;59834;52.124;5.422;2023-03-26T08:37:26;100303.09;;;7.78;100.00
71964;BME280;59834;52.124;5.422;2023-03-26T08:39:54;100306.41;;;7.80;100.00
71964;BME280;59834;52.124;5.422;2023-03-26T08:42:49;100309.03;;;7.80;100.00
71964;BME280;59834;52.124;5.422;2023-03-26T08:45:43;100309.97;;;7.79;100.00
71964;BME280;59834;52.124;5.422;2023-03-26T08:48:40;100305.78;;;7.76;100.00
71964;BME280;59834;52.124;5.422;2023-03-26T08:51:49;100309.50;;;7.72;100.00
71964;BME280;59834;52.124;5.422;2023-03-26T09:12:48;100310.84;;;7.49;100.00
71964;BME280;59834;52.124;5.422;2023-03-26T09:15:37;100315.31;;;7.47;100.00
71964;BME280;59834;52.124;5.422;2023-03-26T09:20:59;100313.81;;;7.43;100.00
71964;BME280;59834;52.124;5.422;2023-03-26T09:26:45;100309.63;;;7.41;100.00
71964;BME280;59834;52.124;5.422;2023-03-26T09:34:58;100313.75;;;7.45;100.00
71964;BME280;59834;52.124;5.422;2023-03-26T09:37:39;100318.31;;;7.55;100.00
71964;BME280;59834;52.124;5.422;2023-03-26T09:48:58;100322.03;;;7.51;100.00
71964;BME280;59834;52.124;5.422;2023-03-26T09:54:24;100332.63;;;7.48;100.00
71964;BME280;59834;52.124;5.422;2023-03-26T09:57:17;100324.53;;;7.53;100.00
71964;BME280;59834;52.124;5.422;2023-03-26T10:05:17;100338.00;;;7.45;100.00
71964;BME280;59834;52.124;5.422;2023-03-26T10:22:21;100347.00;;;7.40;100.00
71964;BME280;59834;52.124;5.422;2023-03-26T10:27:45;100349.44;;;7.43;100.00
71964;BME280;59834;52.124;5.422;2023-03-26T10:30:34;100350.19;;;7.45;100.00
71964;BME280;59834;52.124;5.422;2023-03-26T10:33:21;100359.69;;;7.46;100.00
71964;BME280;59834;52.124;5.422;2023-03-26T10:36:19;100362.00;;;7.50;100.00
71964;BME280;59834;52.124;5.422;2023-03-26T10:41:42;100351.75;;;7.47;100.00
71964;BME280;59834;52.124;5.422;2023-03-26T10:52:36;100363.53;;;7.54;100.00
71964;BME280;59834;52.124;5.422;2023-03-26T10:55:36;100361.00;;;7.53;100.00
71964;BME280;59834;52.124;5.422;2023-03-26T10:58:28;100371.69;;;7.48;100.00
71964;BME280;59834;52.124;5.422;2023-03-26T11:03:54;100372.28;;;7.38;100.00
71964;BME280;59834;52.124;5.422;2023-03-26T11:06:45;100377.41;;;7.39;100.00
71964;BME280;59834;52.124;5.422;2023-03-26T11:09:31;100376.47;;;7.40;100.00
71964;BME280;59834;52.124;5.422;2023-03-26T11:12:25;100372.38;;;7.36;100.00
71964;BME280;59834;52.124;5.422;2023-03-26T11:15:05;100381.50;;;7.43;100.00
71964;BME280;59834;52.124;5.422;2023-03-26T11:20:56;100386.72;;;7.43;100.00
71964;BME280;59834;52.124;5.422;2023-03-26T11:26:50;100382.66;;;7.53;100.00
71964;BME280;59834;52.124;5.422;2023-03-26T11:29:24;100397.75;;;7.63;100.00
71964;BME280;59834;52.124;5.422;2023-03-26T11:37:32;100406.44;;;7.77;100.00
71964;BME280;59834;52.124;5.422;2023-03-26T11:40:02;100395.34;;;7.74;100.00
71964;BME280;59834;52.124;5.422;2023-03-26T11:42:31;100407.06;;;7.67;100.00
71964;BME280;59834;52.124;5.422;2023-03-26T11:45:02;100410.03;;;7.61;100.00
71964;BME280;59834;52.124;5.422;2023-03-26T11:47:37;100411.47;;;7.50;99.56
71964;BME280;59834;52.124;5.422;2023-03-26T11:50:15;100404.22;;;7.41;100.00
71964;BME280;59834;52.124;5.422;2023-03-26T11:52:49;100412.19;;;7.38;100.00
71964;BME280;59834;52.124;5.422;2023-03-26T11:55:22;100410.50;;;7.37;100.00
71964;BME280;59834;52.124;5.422;2023-03-26T11:57:53;100414.81;;;7.38;100.00
71964;BME280;59834;52.124;5.422;2023-03-26T12:00:21;100412.19;;;7.38;100.00
71964;BME280;59834;52.124;5.422;2023-03-26T12:02:57;100418.81;;;7.44;100.00
71964;BME280;59834;52.124;5.422;2023-03-26T12:05:27;100421.81;;;7.52;100.00
71964;BME280;59834;52.124;5.422;2023-03-26T12:08:02;100420.53;;;7.59;100.00
71964;BME280;59834;52.124;5.422;2023-03-26T12:10:43;100421.03;;;7.66;100.00
71964;BME280;59834;52.124;5.422;2023-03-26T12:16:16;100416.97;;;7.76;100.00
71964;BME280;59834;52.124;5.422;2023-03-26T12:18:45;100420.22;;;7.79;100.00
71964;BME280;59834;52.124;5.422;2023-03-26T12:21:22;100419.03;;;7.85;99.85
71964;BME280;59834;52.124;5.422;2023-03-26T12:26:39;100429.13;;;8.06;99.26
71964;BME280;59834;52.124;5.422;2023-03-26T12:29:16;100432.19;;;8.12;96.61
71964;BME280;59834;52.124;5.422;2023-03-26T12:31:51;100436.19;;;8.18;96.21
71964;BME280;59834;52.124;5.422;2023-03-26T12:34:21;100430.25;;;8.30;95.13
71964;BME280;59834;52.124;5.422;2023-03-26T12:36:54;100438.72;;;8.34;93.44
71964;BME280;59834;52.124;5.422;2023-03-26T12:42:30;100439.88;;;8.44;92.67
71964;BME280;59834;52.124;5.422;2023-03-26T12:45:29;100441.81;;;8.40;92.34
71964;BME280;59834;52.124;5.422;2023-03-26T12:47:57;100445.44;;;8.38;91.20
71964;BME280;59834;52.124;5.422;2023-03-26T12:50:39;100451.69;;;8.35;89.75
71964;BME280;59834;52.124;5.422;2023-03-26T12:56:37;100449.66;;;8.40;88.31
71964;BME280;59834;52.124;5.422;2023-03-26T13:07:14;100464.91;;;8.61;87.96
71964;BME280;59834;52.124;5.422;2023-03-26T13:15:37;100462.50;;;8.86;84.53
71964;BME280;59834;52.124;5.422;2023-03-26T13:24:24;100470.50;;;8.83;82.73
71964;BME280;59834;52.124;5.422;2023-03-26T13:33:06;100485.50;;;8.80;82.45
71964;BME280;59834;52.124;5.422;2023-03-26T13:38:13;100491.22;;;8.72;81.97
71964;BME280;59834;52.124;5.422;2023-03-26T13:46:35;100499.28;;;8.96;79.77
71964;BME280;59834;52.124;5.422;2023-03-26T13:54:19;100499.13;;;8.99;78.79
71964;BME280;59834;52.124;5.422;2023-03-26T13:59:49;100500.94;;;9.11;77.41
71964;BME280;59834;52.124;5.422;2023-03-26T14:02:26;100499.06;;;9.13;78.15
71964;BME280;59834;52.124;5.422;2023-03-26T14:05:02;100499.75;;;9.03;77.47
71964;BME280;59834;52.124;5.422;2023-03-26T14:07:37;100510.47;;;8.98;76.26
71964;BME280;59834;52.124;5.422;2023-03-26T14:10:18;100513.19;;;8.96;76.67
71964;BME280;59834;52.124;5.422;2023-03-26T14:15:52;100526.78;;;8.87;78.27
71964;BME280;59834;52.124;5.422;2023-03-26T14:18:29;100539.75;;;8.89;78.18
71964;BME280;59834;52.124;5.422;2023-03-26T14:49:39;100579.88;;;8.58;76.31
71964;BME280;59834;52.124;5.422;2023-03-26T15:09:46;100605.88;;;8.29;74.02
71964;BME280;59834;52.124;5.422;2023-03-26T15:12:30;100621.53;;;8.29;75.26
71964;BME280;59834;52.124;5.422;2023-03-26T15:15:32;100611.00;;;8.31;74.83
71964;BME280;59834;52.124;5.422;2023-03-26T15:24:22;100628.75;;;8.24;73.05
71964;BME280;59834;52.124;5.422;2023-03-26T15:40:56;100654.28;;;8.19;70.42
71964;BME280;59834;52.124;5.422;2023-03-26T15:44:00;100660.75;;;8.12;71.34
71964;BME280;59834;52.124;5.422;2023-03-26T15:46:53;100668.47;;;8.13;71.11
71964;BME280;59834;52.124;5.422;2023-03-26T15:49:44;100671.25;;;8.10;72.10
71964;BME280;59834;52.124;5.422;2023-03-26T15:55:39;100686.91;;;7.94;71.07
71964;BME280;59834;52.124;5.422;2023-03-26T15:58:17;100687.66;;;7.96;70.82
71964;BME280;59834;52.124;5.422;2023-03-26T16:00:53;100693.81;;;7.95;71.36
71964;BME280;59834;52.124;5.422;2023-03-26T16:06:48;100711.03;;;7.82;71.87
71964;BME280;59834;52.124;5.422;2023-03-26T16:11:58;100728.00;;;7.73;69.72
71964;BME280;59834;52.124;5.422;2023-03-26T16:17:04;100732.94;;;7.62;68.45
71964;BME280;59834;52.124;5.422;2023-03-26T16:19:45;100730.34;;;7.62;69.03
71964;BME280;59834;52.124;5.422;2023-03-26T16:22:35;100745.13;;;7.62;70.42
71964;BME280;59834;52.124;5.422;2023-03-26T16:25:30;100747.72;;;7.62;70.25
71964;BME280;59834;52.124;5.422;2023-03-26T16:28:18;100748.72;;;7.59;69.34
71964;BME280;59834;52.124;5.422;2023-03-26T16:34:17;100766.75;;;7.46;69.14
71964;BME280;59834;52.124;5.422;2023-03-26T16:36:46;100772.13;;;7.43;69.51
71964;BME280;59834;52.124;5.422;2023-03-26T16:39:21;100768.75;;;7.41;69.06
71964;BME280;59834;52.124;5.422;2023-03-26T16:41:59;100780.06;;;7.40;68.74
71964;BME280;59834;52.124;5.422;2023-03-26T16:44:53;100795.03;;;7.37;67.46
71964;BME280;59834;52.124;5.422;2023-03-26T16:47:35;100800.31;;;7.35;68.62
71964;BME280;59834;52.124;5.422;2023-03-26T16:55:58;100812.97;;;7.25;66.96
71964;BME280;59834;52.124;5.422;2023-03-26T16:58:57;100814.72;;;7.25;66.85
71964;BME280;59834;52.124;5.422;2023-03-26T17:04:47;100848.03;;;7.18;65.87
71964;BME280;59834;52.124;5.422;2023-03-26T17:07:22;100846.56;;;7.13;66.12
71964;BME280;59834;52.124;5.422;2023-03-26T17:10:14;100860.63;;;7.08;66.65
71964;BME280;59834;52.124;5.422;2023-03-26T17:12:53;100847.13;;;7.00;66.56
71964;BME280;59834;52.124;5.422;2023-03-26T17:15:29;100862.00;;;6.98;66.58
71964;BME280;59834;52.124;5.422;2023-03-26T17:18:16;100864.91;;;6.92;67.24
71964;BME280;59834;52.124;5.422;2023-03-26T17:24:06;100880.25;;;6.79;67.05
71964;BME280;59834;52.124;5.422;2023-03-26T17:40:50;100927.91;;;6.61;65.84
71964;BME280;59834;52.124;5.422;2023-03-26T17:46:21;100931.41;;;6.60;67.85
71964;BME280;59834;52.124;5.422;2023-03-26T17:51:53;100935.28;;;6.51;67.64
71964;BME280;59834;52.124;5.422;2023-03-26T17:54:29;100943.28;;;6.47;66.57
71964;BME280;59834;52.124;5.422;2023-03-26T17:59:57;100954.09;;;6.37;64.16
71964;BME280;59834;52.124;5.422;2023-03-26T18:02:37;100954.28;;;6.33;65.07
71964;BME280;59834;52.124;5.422;2023-03-26T18:05:10;100965.75;;;6.29;65.46
71964;BME280;59834;52.124;5.422;2023-03-26T18:16:16;100993.97;;;5.97;65.74
71964;BME280;59834;52.124;5.422;2023-03-26T18:18:52;100994.97;;;5.93;65.89
71964;BME280;59834;52.124;5.422;2023-03-26T18:21:25;101002.78;;;5.93;66.65
71964;BME280;59834;52.124;5.422;2023-03-26T18:23:53;100993.25;;;5.92;66.25
71964;BME280;59834;52.124;5.422;2023-03-26T18:26:32;101000.97;;;5.95;66.20
71964;BME280;59834;52.124;5.422;2023-03-26T18:31:48;101015.50;;;5.99;66.26
71964;BME280;59834;52.124;5.422;2023-03-26T18:34:19;101021.38;;;6.04;66.30
71964;BME280;59834;52.124;5.422;2023-03-26T18:36:58;101031.06;;;6.01;66.43
71964;BME280;59834;52.124;5.422;2023-03-26T18:39:26;101038.06;;;5.99;65.54
71964;BME280;59834;52.124;5.422;2023-03-26T18:41:53;101043.13;;;6.02;66.31
71964;BME280;59834;52.124;5.422;2023-03-26T18:44:20;101049.16;;;6.02;65.99
71964;BME280;59834;52.124;5.422;2023-03-26T18:46:47;101059.56;;;6.02;66.47